Terminal Aerodrome Forecast
Issued by NWS

Home | Current Version | Previous Version | Text Only | Print | Product List | Glossary On
Versions: 1 2 3 4 5 6 7 8 9 10 11 12 13 14 15 16 17 18
000
FTUS42 KTAE 240528
TAFECP
TAF
KECP 240528Z 2406/2506 31006KT P6SM SCT050
     FM241100 32005KT P6SM BKN025
     FM241700 32010G15KT P6SM BKN045
     FM242300 31006KT P6SM SKC=

USA.gov is the U.S. government's official web portal to all federal, state and local government web resources and services.